createdAt,value
2018-08-17T00:01:13.752Z,21.80
2018-08-17T00:03:42.438Z,21.70
2018-08-17T00:06:11.214Z,21.70
2018-08-17T00:08:39.986Z,21.60
2018-08-17T00:11:08.781Z,21.60
2018-08-17T00:13:37.464Z,21.60
2018-08-17T00:16:06.237Z,21.70
2018-08-17T00:18:34.992Z,21.70
2018-08-17T00:21:03.774Z,21.70
2018-08-17T00:23:32.757Z,21.70
2018-08-17T00:26:01.493Z,21.60
2018-08-17T00:28:30.220Z,21.70
2018-08-17T00:30:59.001Z,21.70
2018-08-17T00:33:27.769Z,21.60
2018-08-17T00:35:56.593Z,21.60
2018-08-17T00:38:25.336Z,21.50
2018-08-17T00:40:54.112Z,21.50
2018-08-17T00:43:22.807Z,21.40
2018-08-17T00:45:51.614Z,21.30
2018-08-17T00:48:20.382Z,21.20
2018-08-17T00:50:49.136Z,21.20
2018-08-17T00:53:17.862Z,21.30
2018-08-17T00:55:46.596Z,21.30
2018-08-17T00:58:15.280Z,21.30
2018-08-17T01:00:44.055Z,21.20
2018-08-17T01:03:12.767Z,21.20
2018-08-17T01:05:41.555Z,21.20
2018-08-17T01:08:10.245Z,21.20
2018-08-17T01:10:39.012Z,21.10
2018-08-17T01:13:13.073Z,21.00
2018-08-17T01:15:42.165Z,21.00
2018-08-17T01:18:16.068Z,21.00
2018-08-17T01:20:52.195Z,20.90
2018-08-17T01:23:25.348Z,20.80
2018-08-17T01:25:58.278Z,20.90
2018-08-17T01:28:33.924Z,20.80
2018-08-17T01:31:14.951Z,20.70
2018-08-17T01:33:48.139Z,20.80
2018-08-17T01:36:22.253Z,20.70
2018-08-17T01:38:55.430Z,20.70
2018-08-17T01:41:28.376Z,20.60
2018-08-17T01:44:03.065Z,20.70
2018-08-17T01:46:37.008Z,20.70
2018-08-17T01:49:09.674Z,20.70
2018-08-17T01:51:43.804Z,20.70
2018-08-17T01:54:17.577Z,20.70
2018-08-17T01:57:00.312Z,20.70
2018-08-17T01:59:34.579Z,20.70
2018-08-17T02:02:09.594Z,20.60
2018-08-17T02:04:45.012Z,20.70
2018-08-17T02:07:19.211Z,20.60
2018-08-17T02:09:53.142Z,20.60
2018-08-17T02:12:26.988Z,20.50
2018-08-17T02:14:59.074Z,20.60
2018-08-17T02:17:34.119Z,20.50
2018-08-17T02:20:08.316Z,20.50
2018-08-17T02:22:41.701Z,20.50
2018-08-17T02:25:14.533Z,20.50
2018-08-17T02:27:47.783Z,20.50
2018-08-17T02:30:22.179Z,20.40
2018-08-17T02:32:56.160Z,20.40
2018-08-17T02:35:28.864Z,20.40
2018-08-17T02:38:01.749Z,20.40
2018-08-17T02:40:34.782Z,20.20
2018-08-17T02:43:05.834Z,20.20
2018-08-17T02:45:38.335Z,20.30
2018-08-17T02:48:08.955Z,20.20
2018-08-17T02:50:41.657Z,20.30
2018-08-17T02:53:13.358Z,20.30
2018-08-17T02:55:45.980Z,20.20
2018-08-17T02:58:17.689Z,20.20
2018-08-17T03:00:50.056Z,20.30
2018-08-17T03:03:23.540Z,20.40
2018-08-17T03:05:57.286Z,20.30
2018-08-17T03:08:29.289Z,20.30
2018-08-17T03:10:58.025Z,20.40
2018-08-17T03:13:26.759Z,20.40
2018-08-17T03:15:55.492Z,20.30
2018-08-17T03:18:24.259Z,20.10
2018-08-17T03:20:52.945Z,20.00
2018-08-17T03:23:21.710Z,20.00
2018-08-17T03:25:50.401Z,19.80
2018-08-17T03:28:19.148Z,19.90
2018-08-17T03:30:47.822Z,19.90
2018-08-17T03:33:16.550Z,19.90
2018-08-17T03:35:45.301Z,19.80
2018-08-17T03:38:14.117Z,19.80
2018-08-17T03:40:42.764Z,19.90
2018-08-17T03:43:11.534Z,19.90
2018-08-17T03:45:40.253Z,20.00
2018-08-17T03:48:09.209Z,20.00
2018-08-17T03:50:37.964Z,19.90
2018-08-17T03:53:06.744Z,19.80
2018-08-17T03:55:35.544Z,19.80
2018-08-17T03:58:04.269Z,19.70
2018-08-17T04:00:32.951Z,19.70
2018-08-17T04:03:01.745Z,19.80
2018-08-17T04:05:30.476Z,19.70
2018-08-17T04:07:59.233Z,19.70
2018-08-17T04:10:28.011Z,19.70
2018-08-17T04:12:56.768Z,19.60
2018-08-17T04:15:25.575Z,19.60
2018-08-17T04:17:54.288Z,19.50
2018-08-17T04:20:23.054Z,19.60
2018-08-17T04:22:51.787Z,19.60
2018-08-17T04:25:20.595Z,19.60
2018-08-17T04:27:49.260Z,19.60
2018-08-17T04:30:18.030Z,19.60
2018-08-17T04:32:46.754Z,19.60
2018-08-17T04:35:15.549Z,19.50
2018-08-17T04:37:44.232Z,19.60
2018-08-17T04:40:12.997Z,19.60
2018-08-17T04:42:41.742Z,19.40
2018-08-17T04:45:10.526Z,19.40
2018-08-17T04:47:39.330Z,19.40
2018-08-17T04:50:09.124Z,19.30
2018-08-17T04:52:38.432Z,19.30
2018-08-17T04:55:07.684Z,19.20
2018-08-17T04:57:36.754Z,19.20
2018-08-17T05:00:07.521Z,19.30
2018-08-17T05:02:36.686Z,19.40
2018-08-17T05:05:05.725Z,19.50
2018-08-17T05:07:34.409Z,19.70
2018-08-17T05:10:03.100Z,19.60
2018-08-17T05:12:31.753Z,19.70
2018-08-17T05:15:00.471Z,19.90
2018-08-17T05:17:29.261Z,19.90
2018-08-17T05:19:57.974Z,19.90
2018-08-17T05:22:26.662Z,20.00
2018-08-17T05:24:55.360Z,20.10
2018-08-17T05:27:24.128Z,20.00
2018-08-17T05:29:52.840Z,20.10
2018-08-17T05:32:21.533Z,20.10
2018-08-17T05:34:50.294Z,20.20
2018-08-17T05:37:18.937Z,20.30
2018-08-17T05:39:47.684Z,20.30
2018-08-17T05:42:24.989Z,20.30
2018-08-17T05:44:53.895Z,20.40
2018-08-17T05:47:22.591Z,20.40
2018-08-17T05:49:51.255Z,20.50
2018-08-17T05:52:20.068Z,20.60
2018-08-17T05:54:48.789Z,20.60
2018-08-17T05:57:17.557Z,20.70
2018-08-17T05:59:46.285Z,20.70
2018-08-17T06:02:15.068Z,20.70
2018-08-17T06:04:43.769Z,20.70
2018-08-17T06:07:12.513Z,20.70
2018-08-17T06:09:41.282Z,20.80
2018-08-17T06:12:09.959Z,20.90
2018-08-17T06:14:38.929Z,20.80
2018-08-17T06:17:07.869Z,20.80
2018-08-17T06:19:36.887Z,20.90
2018-08-17T06:22:05.622Z,20.90
2018-08-17T06:24:34.423Z,21.00
2018-08-17T06:27:03.174Z,21.30
2018-08-17T06:29:32.011Z,21.50
2018-08-17T06:32:00.753Z,21.80
2018-08-17T06:34:29.569Z,21.80
2018-08-17T06:36:58.383Z,22.00
2018-08-17T06:39:27.252Z,22.10
2018-08-17T06:41:56.001Z,22.20
2018-08-17T06:44:24.800Z,22.30
2018-08-17T06:46:53.505Z,22.30
2018-08-17T06:49:22.661Z,22.30
2018-08-17T06:51:51.450Z,22.30
2018-08-17T06:54:21.309Z,22.40
2018-08-17T06:56:50.812Z,22.40
2018-08-17T06:59:19.826Z,22.50
2018-08-17T07:01:48.680Z,22.70
2018-08-17T07:04:17.479Z,22.90
2018-08-17T07:06:46.585Z,23.10
2018-08-17T07:09:15.394Z,23.20
2018-08-17T07:11:44.107Z,23.30
2018-08-17T07:14:12.920Z,23.60
2018-08-17T07:16:41.647Z,23.80
2018-08-17T07:19:11.946Z,23.80
2018-08-17T07:21:40.696Z,23.80
2018-08-17T07:24:09.408Z,23.80
2018-08-17T07:26:38.191Z,23.80
2018-08-17T07:29:07.010Z,23.80
2018-08-17T07:31:35.761Z,23.90
2018-08-17T07:34:05.269Z,23.90
2018-08-17T07:36:34.056Z,24.00
2018-08-17T07:39:02.902Z,24.10
2018-08-17T07:41:31.647Z,24.30
2018-08-17T07:44:00.430Z,24.60
2018-08-17T07:46:29.180Z,24.90
2018-08-17T07:48:58.040Z,25.10
2018-08-17T07:51:26.861Z,25.30
2018-08-17T07:53:55.648Z,25.50
2018-08-17T07:56:24.537Z,25.70
2018-08-17T07:58:53.332Z,25.80
2018-08-17T08:01:22.032Z,26.00
2018-08-17T08:03:50.786Z,26.30
2018-08-17T08:06:19.559Z,26.50
2018-08-17T08:08:48.403Z,26.60
2018-08-17T08:11:17.218Z,26.60
2018-08-17T08:13:46.073Z,26.70
2018-08-17T08:16:14.762Z,27.00
2018-08-17T08:18:43.918Z,27.30
2018-08-17T08:21:12.709Z,27.40
2018-08-17T08:23:41.548Z,27.60
2018-08-17T08:26:10.482Z,27.70
2018-08-17T08:28:39.205Z,27.90
2018-08-17T08:31:08.073Z,28.00
2018-08-17T08:33:36.781Z,28.00
2018-08-17T08:36:05.648Z,28.20
2018-08-17T08:38:34.483Z,28.20
2018-08-17T08:41:03.277Z,28.30
2018-08-17T08:43:32.145Z,28.20
2018-08-17T08:46:00.936Z,28.30
2018-08-17T08:48:29.812Z,28.40
2018-08-17T08:50:58.586Z,28.20
2018-08-17T08:53:27.362Z,28.40
2018-08-17T08:55:56.101Z,28.50
2018-08-17T08:58:24.867Z,28.60
2018-08-17T09:00:53.701Z,28.90
2018-08-17T09:03:22.520Z,28.80
2018-08-17T09:05:51.376Z,29.00
2018-08-17T09:08:20.258Z,28.80
2018-08-17T09:10:48.934Z,28.80
2018-08-17T09:13:17.913Z,29.10
2018-08-17T09:15:49.410Z,29.20
2018-08-17T09:18:18.320Z,29.30
2018-08-17T09:20:47.287Z,29.10
2018-08-17T09:23:16.176Z,29.20
2018-08-17T09:25:44.982Z,29.10
2018-08-17T09:28:14.643Z,28.90
2018-08-17T09:30:43.369Z,29.00
2018-08-17T09:33:12.109Z,29.20
2018-08-17T09:35:40.843Z,29.30
2018-08-17T09:38:12.329Z,29.50
2018-08-17T09:40:43.688Z,29.90
2018-08-17T09:43:16.915Z,29.40
2018-08-17T09:45:48.956Z,29.40
2018-08-17T09:48:21.407Z,29.70
2018-08-17T09:50:53.617Z,29.90
2018-08-17T09:53:24.076Z,30.20
2018-08-17T09:55:55.558Z,30.20
2018-08-17T09:58:27.179Z,30.20
2018-08-17T10:01:04.605Z,30.40
2018-08-17T10:03:40.468Z,30.50
2018-08-17T10:06:17.106Z,30.70
2018-08-17T10:08:53.459Z,30.90
2018-08-17T10:11:22.308Z,30.80
2018-08-17T10:13:51.440Z,30.90
2018-08-17T10:16:20.204Z,31.30
2018-08-17T10:18:49.081Z,31.80
2018-08-17T10:21:21.520Z,31.80
2018-08-17T10:23:53.068Z,31.60
2018-08-17T10:26:22.017Z,31.70
2018-08-17T10:28:50.730Z,32.00
2018-08-17T10:31:19.539Z,32.30
2018-08-17T10:33:48.459Z,32.40
2018-08-17T10:36:17.318Z,32.70
2018-08-17T10:38:46.159Z,32.90
2018-08-17T10:41:15.069Z,33.00
2018-08-17T10:43:46.439Z,33.20
2018-08-17T10:46:15.333Z,33.30
2018-08-17T10:48:44.167Z,33.40
2018-08-17T10:51:12.984Z,33.30
2018-08-17T10:53:46.054Z,33.20
2018-08-17T10:56:15.033Z,33.50
2018-08-17T10:58:43.758Z,33.60
2018-08-17T11:01:12.509Z,33.40
2018-08-17T11:03:41.346Z,33.10
2018-08-17T11:06:10.033Z,33.20
2018-08-17T11:08:38.772Z,33.40
2018-08-17T11:11:07.559Z,33.60
2018-08-17T11:13:36.346Z,33.50
2018-08-17T11:16:05.165Z,33.60
2018-08-17T11:18:33.878Z,33.70
2018-08-17T11:21:02.890Z,33.80
2018-08-17T11:23:31.673Z,33.80
2018-08-17T11:26:00.540Z,33.60
2018-08-17T11:28:29.428Z,33.70
2018-08-17T11:30:58.222Z,33.60
2018-08-17T11:33:28.608Z,33.50
2018-08-17T11:35:57.858Z,33.70
2018-08-17T11:38:27.130Z,33.90
2018-08-17T11:40:56.039Z,34.00
2018-08-17T11:43:24.734Z,34.20
2018-08-17T11:45:53.691Z,34.50
2018-08-17T11:48:28.454Z,34.50
2018-08-17T11:50:57.674Z,34.60
2018-08-17T11:53:26.652Z,34.60
2018-08-17T11:55:55.412Z,34.50
2018-08-17T11:58:24.246Z,34.20
2018-08-17T12:00:53.139Z,34.00
2018-08-17T12:03:22.231Z,33.60
2018-08-17T12:05:50.994Z,33.60
2018-08-17T12:08:19.802Z,33.50
2018-08-17T12:10:54.320Z,33.70
2018-08-17T12:13:23.175Z,33.90
2018-08-17T12:15:58.215Z,33.80
2018-08-17T12:18:27.250Z,33.80
2018-08-17T12:20:56.318Z,33.90
2018-08-17T12:23:25.068Z,33.70
2018-08-17T12:25:56.495Z,33.80
2018-08-17T12:28:27.006Z,33.70
2018-08-17T12:30:56.103Z,33.50
2018-08-17T12:33:24.880Z,33.40
2018-08-17T12:35:59.703Z,33.30
2018-08-17T12:38:29.376Z,33.60
2018-08-17T12:40:59.125Z,33.70
2018-08-17T12:43:30.271Z,33.90
2018-08-17T12:46:00.257Z,33.80
2018-08-17T12:48:29.073Z,33.60
2018-08-17T12:51:05.988Z,33.30
2018-08-17T12:53:37.224Z,33.40
2018-08-17T12:56:06.836Z,33.10
2018-08-17T12:58:35.566Z,33.30
2018-08-17T13:01:04.319Z,33.30
2018-08-17T13:03:33.051Z,33.40
2018-08-17T13:06:01.901Z,33.60
2018-08-17T13:08:30.701Z,33.70
2018-08-17T13:10:59.633Z,33.90
2018-08-17T13:13:30.465Z,33.80
2018-08-17T13:16:07.703Z,34.00
2018-08-17T13:18:38.090Z,34.00
2018-08-17T13:21:07.657Z,33.70
2018-08-17T13:23:36.408Z,33.40
2018-08-17T13:26:07.069Z,33.20
2018-08-17T13:28:35.894Z,33.20
2018-08-17T13:31:04.685Z,33.20
2018-08-17T13:33:33.493Z,33.40
2018-08-17T13:36:02.738Z,33.50
2018-08-17T13:38:31.502Z,33.60
2018-08-17T13:41:00.361Z,33.70
2018-08-17T13:43:29.168Z,33.70
2018-08-17T13:45:59.500Z,33.80
2018-08-17T13:48:28.357Z,33.70
2018-08-17T13:50:58.169Z,33.50
2018-08-17T13:53:26.979Z,33.30
2018-08-17T13:55:55.733Z,33.40
2018-08-17T13:58:24.517Z,33.60
2018-08-17T14:01:08.817Z,33.50
2018-08-17T14:03:38.836Z,33.40
2018-08-17T14:06:07.952Z,33.20
2018-08-17T14:08:36.668Z,33.30
2018-08-17T14:11:05.947Z,33.30
2018-08-17T14:13:34.694Z,33.30
2018-08-17T14:16:03.478Z,33.30
2018-08-17T14:18:32.275Z,33.40
2018-08-17T14:21:02.036Z,33.40
2018-08-17T14:23:30.826Z,33.40
2018-08-17T14:25:59.698Z,33.50
2018-08-17T14:28:28.384Z,33.60
2018-08-17T14:30:57.156Z,33.40
2018-08-17T14:33:26.200Z,33.30
2018-08-17T14:35:55.082Z,33.20
2018-08-17T14:38:34.504Z,33.30
2018-08-17T14:41:04.211Z,33.40
2018-08-17T14:43:33.374Z,33.40
2018-08-17T14:46:02.205Z,33.40
2018-08-17T14:48:31.359Z,33.50
2018-08-17T14:51:00.680Z,33.60
2018-08-17T14:53:29.362Z,33.70
2018-08-17T14:55:58.516Z,33.70
2018-08-17T14:58:27.244Z,33.60
2018-08-17T15:00:56.055Z,33.60
2018-08-17T15:03:24.850Z,33.50
2018-08-17T15:05:53.580Z,33.50
2018-08-17T15:08:22.313Z,33.40
2018-08-17T15:10:51.163Z,33.40
2018-08-17T15:13:20.017Z,33.30
2018-08-17T15:16:09.993Z,33.20
2018-08-17T15:18:38.800Z,33.20
2018-08-17T15:21:09.264Z,33.20
2018-08-17T15:23:38.023Z,33.40
2018-08-17T15:26:06.987Z,33.40
2018-08-17T15:28:35.748Z,33.50
2018-08-17T15:31:08.207Z,33.50
2018-08-17T15:33:36.949Z,33.40
2018-08-17T15:36:05.743Z,33.30
2018-08-17T15:38:34.590Z,33.20
2018-08-17T15:41:03.395Z,33.20
2018-08-17T15:43:32.810Z,33.20
2018-08-17T15:46:01.594Z,33.10
2018-08-17T15:48:38.201Z,33.10
2018-08-17T15:51:07.436Z,33.10
2018-08-17T15:53:36.123Z,33.10
2018-08-17T15:56:05.071Z,33.00
2018-08-17T15:58:33.776Z,32.90
2018-08-17T16:01:02.722Z,32.90
2018-08-17T16:03:31.531Z,32.80
2018-08-17T16:06:00.767Z,32.80
2018-08-17T16:08:29.571Z,32.80
2018-08-17T16:10:58.285Z,32.80
2018-08-17T16:13:27.037Z,32.60
2018-08-17T16:15:55.842Z,32.30
2018-08-17T16:18:24.571Z,32.30
2018-08-17T16:20:53.325Z,32.30
2018-08-17T16:23:22.209Z,32.20
2018-08-17T16:25:50.907Z,32.10
2018-08-17T16:28:19.649Z,32.00
2018-08-17T16:30:48.413Z,31.80
2018-08-17T16:33:17.177Z,31.60
2018-08-17T16:35:45.925Z,31.40
2018-08-17T16:38:14.682Z,31.30
2018-08-17T16:40:57.792Z,31.10
2018-08-17T16:43:37.755Z,31.00
2018-08-17T16:46:06.505Z,31.00
2018-08-17T16:48:35.289Z,30.90
2018-08-17T16:51:04.183Z,30.90
2018-08-17T16:53:32.937Z,30.80
2018-08-17T16:56:01.751Z,30.70
2018-08-17T16:58:30.518Z,30.70
2018-08-17T17:00:59.328Z,30.60
2018-08-17T17:03:28.006Z,30.40
2018-08-17T17:06:00.268Z,30.40
2018-08-17T17:08:29.293Z,30.40
2018-08-17T17:10:58.234Z,30.40
2018-08-17T17:13:26.947Z,30.30
2018-08-17T17:15:55.661Z,30.30
2018-08-17T17:18:24.424Z,30.20
2018-08-17T17:20:53.242Z,30.20
2018-08-17T17:23:21.950Z,30.20
2018-08-17T17:25:50.777Z,30.10
2018-08-17T17:28:19.469Z,30.00
2018-08-17T17:30:50.091Z,30.00
2018-08-17T17:33:18.816Z,29.90
2018-08-17T17:35:47.549Z,29.90
2018-08-17T17:38:16.403Z,29.80
2018-08-17T17:40:45.214Z,29.80
2018-08-17T17:43:13.966Z,29.70
2018-08-17T17:45:42.701Z,29.60
2018-08-17T17:48:11.472Z,29.60
2018-08-17T17:50:40.205Z,29.50
2018-08-17T17:53:08.936Z,29.50
2018-08-17T17:55:56.153Z,29.40
2018-08-17T17:58:25.032Z,29.40
2018-08-17T18:01:02.684Z,29.40
2018-08-17T18:03:32.022Z,29.30
2018-08-17T18:06:01.896Z,29.30
2018-08-17T18:08:30.981Z,29.30
2018-08-17T18:10:59.806Z,29.20
2018-08-17T18:13:28.938Z,29.00
2018-08-17T18:15:57.790Z,28.90
2018-08-17T18:18:26.625Z,28.90
2018-08-17T18:20:55.334Z,28.80
2018-08-17T18:23:24.169Z,28.80
2018-08-17T18:25:52.932Z,28.80
2018-08-17T18:28:21.702Z,28.70
2018-08-17T18:30:50.530Z,28.70
2018-08-17T18:33:19.165Z,28.50
2018-08-17T18:35:47.918Z,28.30
2018-08-17T18:38:16.629Z,28.30
2018-08-17T18:40:45.358Z,28.30
2018-08-17T18:43:14.077Z,28.20
2018-08-17T18:45:42.861Z,28.20
2018-08-17T18:48:11.593Z,28.20
2018-08-17T18:50:40.370Z,28.20
2018-08-17T18:53:09.140Z,28.00
2018-08-17T18:55:37.843Z,27.90
2018-08-17T18:58:06.588Z,27.90
2018-08-17T19:00:35.251Z,27.80
2018-08-17T19:03:04.080Z,27.70
2018-08-17T19:05:32.797Z,27.70
2018-08-17T19:08:01.651Z,27.70
2018-08-17T19:10:30.447Z,27.60
2018-08-17T19:12:59.154Z,27.50
2018-08-17T19:15:27.956Z,27.50
2018-08-17T19:17:56.691Z,27.50
2018-08-17T19:20:25.612Z,27.40
2018-08-17T19:22:54.404Z,27.40
2018-08-17T19:25:23.104Z,27.40
2018-08-17T19:27:51.835Z,27.30
2018-08-17T19:30:26.447Z,27.20
2018-08-17T19:32:56.530Z,27.20
2018-08-17T19:35:25.319Z,27.10
2018-08-17T19:37:54.151Z,27.00
2018-08-17T19:40:23.346Z,27.10
2018-08-17T19:42:52.079Z,27.00
2018-08-17T19:45:21.274Z,26.80
2018-08-17T19:47:50.112Z,26.80
2018-08-17T19:50:18.931Z,26.70
2018-08-17T19:52:47.746Z,26.60
2018-08-17T19:55:16.553Z,26.60
2018-08-17T19:57:45.312Z,26.60
2018-08-17T20:00:14.475Z,26.70
2018-08-17T20:02:48.245Z,26.60
2018-08-17T20:05:21.178Z,26.50
2018-08-17T20:07:49.967Z,26.40
2018-08-17T20:10:18.638Z,26.50
2018-08-17T20:12:47.324Z,26.50
2018-08-17T20:15:16.153Z,26.50
2018-08-17T20:17:50.637Z,26.50
2018-08-17T20:20:19.744Z,26.40
2018-08-17T20:22:48.545Z,26.30
2018-08-17T20:25:18.269Z,26.40
2018-08-17T20:27:47.664Z,26.40
2018-08-17T20:30:22.768Z,26.30
2018-08-17T20:32:51.565Z,26.30
2018-08-17T20:35:20.497Z,26.30
2018-08-17T20:37:51.675Z,26.30
2018-08-17T20:40:20.821Z,26.30
2018-08-17T20:42:49.852Z,26.30
2018-08-17T20:45:18.832Z,26.20
2018-08-17T20:47:47.620Z,26.20
2018-08-17T20:50:17.754Z,26.10
2018-08-17T20:52:52.553Z,26.10
2018-08-17T20:55:21.350Z,26.00
2018-08-17T20:57:52.493Z,26.00
2018-08-17T21:00:21.996Z,26.10
2018-08-17T21:02:50.669Z,26.10
2018-08-17T21:05:19.443Z,26.00
2018-08-17T21:07:48.798Z,26.00
2018-08-17T21:10:17.533Z,26.00
2018-08-17T21:12:47.022Z,25.90
2018-08-17T21:15:15.833Z,25.90
2018-08-17T21:17:44.656Z,25.70
2018-08-17T21:20:13.370Z,25.70
2018-08-17T21:22:42.197Z,25.60
2018-08-17T21:25:10.899Z,25.60
2018-08-17T21:27:39.667Z,25.50
2018-08-17T21:30:08.869Z,25.40
2018-08-17T21:32:37.635Z,25.40
2018-08-17T21:35:07.071Z,25.30
2018-08-17T21:37:35.922Z,25.30
2018-08-17T21:40:05.283Z,25.30
2018-08-17T21:42:33.993Z,25.30
2018-08-17T21:45:02.739Z,25.20
2018-08-17T21:47:31.436Z,25.20
2018-08-17T21:50:06.393Z,25.10
2018-08-17T21:52:35.144Z,25.00
2018-08-17T21:55:04.061Z,25.00
2018-08-17T21:57:32.792Z,24.90
2018-08-17T22:00:01.588Z,24.80
2018-08-17T22:02:30.319Z,24.80
2018-08-17T22:04:59.052Z,24.70
2018-08-17T22:07:28.492Z,24.60
2018-08-17T22:09:57.237Z,24.50
2018-08-17T22:12:26.055Z,24.50
2018-08-17T22:14:54.740Z,24.50
2018-08-17T22:17:35.145Z,24.50
2018-08-17T22:20:04.596Z,24.50
2018-08-17T22:22:33.367Z,24.40
2018-08-17T22:25:04.505Z,24.40
2018-08-17T22:27:33.281Z,24.30
2018-08-17T22:30:02.182Z,24.30
2018-08-17T22:32:30.928Z,24.30
2018-08-17T22:34:59.658Z,24.30
2018-08-17T22:37:28.383Z,24.30
2018-08-17T22:39:57.216Z,24.30
2018-08-17T22:42:26.075Z,24.40
2018-08-17T22:44:54.758Z,24.40
2018-08-17T22:47:25.736Z,24.30
2018-08-17T22:49:56.058Z,24.10
2018-08-17T22:52:24.749Z,24.00
2018-08-17T22:54:58.540Z,23.90
2018-08-17T22:57:27.993Z,23.80
2018-08-17T23:00:11.674Z,23.60
2018-08-17T23:02:41.508Z,23.50
2018-08-17T23:05:11.585Z,23.50
2018-08-17T23:07:40.363Z,23.50
2018-08-17T23:10:13.729Z,23.40
2018-08-17T23:12:42.967Z,23.40
2018-08-17T23:15:12.405Z,23.20
2018-08-17T23:17:43.517Z,23.20
2018-08-17T23:20:12.339Z,23.20
2018-08-17T23:22:47.038Z,23.20
2018-08-17T23:25:15.828Z,22.80
2018-08-17T23:27:44.863Z,22.80
2018-08-17T23:30:13.721Z,22.90
2018-08-17T23:32:42.623Z,22.80
2018-08-17T23:35:11.372Z,22.80
2018-08-17T23:37:40.200Z,22.80
2018-08-17T23:40:09.719Z,22.70
2018-08-17T23:42:38.444Z,22.70
2018-08-17T23:45:09.061Z,22.70
2018-08-17T23:47:37.820Z,22.60
2018-08-17T23:50:07.388Z,22.50
2018-08-17T23:52:36.224Z,22.40
2018-08-17T23:55:05.680Z,22.50
2018-08-17T23:57:35.055Z,22.50
